createdAt,value
2017-02-04T00:00:52.649Z,0
2017-02-04T00:02:00.740Z,0
2017-02-04T00:03:08.834Z,0
2017-02-04T00:04:16.924Z,0
2017-02-04T00:05:25.013Z,0
2017-02-04T00:06:33.092Z,0
2017-02-04T00:07:41.183Z,0
2017-02-04T00:08:49.272Z,0
2017-02-04T00:09:57.427Z,0
2017-02-04T00:11:05.445Z,0
2017-02-04T00:12:13.543Z,0
2017-02-04T00:13:21.625Z,0
2017-02-04T00:14:29.714Z,0
2017-02-04T00:15:37.797Z,0
2017-02-04T00:16:45.892Z,0
2017-02-04T00:17:53.979Z,0
2017-02-04T00:19:02.065Z,0
2017-02-04T00:20:10.160Z,0
2017-02-04T00:21:18.242Z,0
2017-02-04T00:22:26.330Z,0
2017-02-04T00:23:34.415Z,0
2017-02-04T00:24:42.510Z,0
2017-02-04T00:25:50.609Z,0
2017-02-04T00:26:58.703Z,0
2017-02-04T00:28:06.786Z,0
2017-02-04T00:29:14.872Z,0
2017-02-04T00:30:22.964Z,0
2017-02-04T00:31:31.049Z,0
2017-02-04T00:32:39.139Z,0
2017-02-04T00:33:47.231Z,0
2017-02-04T00:34:55.320Z,0
2017-02-04T00:36:03.410Z,0
2017-02-04T00:37:11.501Z,0
2017-02-04T00:38:19.590Z,0
2017-02-04T00:39:27.684Z,0
2017-02-04T00:40:35.765Z,0
2017-02-04T00:41:43.852Z,0
2017-02-04T00:42:51.938Z,0
2017-02-04T00:44:00.027Z,0
2017-02-04T00:45:08.117Z,0
2017-02-04T00:46:16.200Z,0
2017-02-04T00:47:24.286Z,0
2017-02-04T00:48:32.391Z,0
2017-02-04T00:49:40.479Z,0
2017-02-04T00:50:48.561Z,0
2017-02-04T00:51:56.650Z,0
2017-02-04T00:53:04.739Z,0
2017-02-04T00:54:12.830Z,0
2017-02-04T00:55:20.921Z,0
2017-02-04T00:56:29.010Z,0
2017-02-04T00:57:37.097Z,0
2017-02-04T00:58:45.180Z,0
2017-02-04T00:59:53.269Z,0
2017-02-04T01:01:01.360Z,0
2017-02-04T01:02:09.446Z,0
2017-02-04T01:03:17.531Z,0
2017-02-04T01:04:25.625Z,0
2017-02-04T01:05:33.712Z,0
2017-02-04T01:06:41.794Z,0
2017-02-04T01:07:49.886Z,0
2017-02-04T01:08:57.985Z,0
2017-02-04T01:10:06.072Z,0
2017-02-04T01:11:14.163Z,0
2017-02-04T01:12:22.254Z,0
2017-02-04T01:13:30.342Z,0
2017-02-04T01:14:38.428Z,0
2017-02-04T01:15:46.518Z,0
2017-02-04T01:16:54.608Z,0
2017-02-04T01:18:02.693Z,0
2017-02-04T01:19:10.782Z,0
2017-02-04T01:20:18.874Z,0
2017-02-04T01:21:33.966Z,0
2017-02-04T01:22:35.055Z,0
2017-02-04T01:23:43.147Z,0
2017-02-04T01:24:51.235Z,0
2017-02-04T01:25:59.322Z,0
2017-02-04T01:27:07.403Z,0
2017-02-04T01:28:15.506Z,0
2017-02-04T01:29:23.594Z,0
2017-02-04T01:30:31.679Z,0
2017-02-04T01:31:39.769Z,0
2017-02-04T01:32:47.859Z,0
2017-02-04T01:33:55.947Z,0
2017-02-04T01:35:04.067Z,0
2017-02-04T01:36:12.126Z,0
2017-02-04T01:37:20.215Z,0
2017-02-04T01:38:28.300Z,0
2017-02-04T01:39:36.389Z,0
2017-02-04T01:40:44.478Z,0
2017-02-04T01:41:52.562Z,0
2017-02-04T01:43:00.653Z,0
2017-02-04T01:44:08.739Z,0
2017-02-04T01:45:16.830Z,0
2017-02-04T01:46:24.914Z,0
2017-02-04T01:47:33.014Z,0
2017-02-04T01:48:41.104Z,0
2017-02-04T01:49:49.194Z,0
2017-02-04T01:50:57.282Z,0
2017-02-04T01:52:05.372Z,0
2017-02-04T01:53:13.463Z,0
2017-02-04T01:54:21.560Z,0
2017-02-04T01:55:29.648Z,0
2017-02-04T01:56:37.734Z,0
2017-02-04T01:57:45.819Z,0
2017-02-04T01:58:53.919Z,0
2017-02-04T02:00:02.006Z,0
2017-02-04T02:01:10.098Z,0
2017-02-04T02:02:18.182Z,0
2017-02-04T02:03:26.278Z,0
2017-02-04T02:04:34.396Z,0
2017-02-04T02:05:42.447Z,0
2017-02-04T02:06:50.540Z,0
2017-02-04T02:07:58.634Z,0
2017-02-04T02:09:06.720Z,0
2017-02-04T02:10:14.813Z,0
2017-02-04T02:11:22.908Z,0
2017-02-04T02:12:30.997Z,0
2017-02-04T02:13:39.084Z,0
2017-02-04T02:14:47.172Z,0
2017-02-04T02:15:55.269Z,0
2017-02-04T02:17:03.353Z,0
2017-02-04T02:18:11.447Z,0
2017-02-04T02:19:19.538Z,0
2017-02-04T02:20:27.620Z,0
2017-02-04T02:21:35.790Z,0
2017-02-04T02:22:43.806Z,0
2017-02-04T02:23:51.898Z,0
2017-02-04T02:24:59.993Z,0
2017-02-04T02:26:08.075Z,0
2017-02-04T02:27:16.165Z,0
2017-02-04T02:28:24.251Z,0
2017-02-04T02:29:32.342Z,0
2017-02-04T02:30:40.426Z,0
2017-02-04T02:31:48.520Z,0
2017-02-04T02:32:56.602Z,0
2017-02-04T02:34:04.690Z,0
2017-02-04T02:35:12.784Z,0
2017-02-04T02:36:20.868Z,0
2017-02-04T02:37:28.953Z,0
2017-02-04T02:38:37.048Z,0
2017-02-04T02:39:45.130Z,0
2017-02-04T02:40:53.221Z,0
2017-02-04T02:42:01.325Z,0
2017-02-04T02:43:09.422Z,0
2017-02-04T02:44:17.501Z,0
2017-02-04T02:45:25.587Z,0
2017-02-04T02:46:33.676Z,0
2017-02-04T02:47:41.769Z,0
2017-02-04T02:48:49.863Z,0
2017-02-04T02:49:57.952Z,0
2017-02-04T02:51:06.045Z,0
2017-02-04T02:52:14.135Z,0
2017-02-04T02:53:22.221Z,0
2017-02-04T02:54:30.310Z,0
2017-02-04T02:55:38.400Z,0
2017-02-04T02:56:46.481Z,0
2017-02-04T02:57:54.578Z,0
2017-02-04T02:59:02.665Z,0
2017-02-04T03:00:10.752Z,0
2017-02-04T03:01:18.835Z,0
2017-02-04T03:02:26.929Z,0
2017-02-04T03:03:35.016Z,0
2017-02-04T03:04:43.100Z,0
2017-02-04T03:05:51.191Z,0
2017-02-04T03:06:59.280Z,0
2017-02-04T03:08:07.371Z,0
2017-02-04T03:09:15.460Z,0
2017-02-04T03:10:23.551Z,0
2017-02-04T03:11:31.643Z,0
2017-02-04T03:12:39.734Z,0
2017-02-04T03:13:47.825Z,0
2017-02-04T03:14:55.918Z,0
2017-02-04T03:16:04.007Z,0
2017-02-04T03:17:12.091Z,0
2017-02-04T03:18:20.189Z,0
2017-02-04T03:19:28.266Z,0
2017-02-04T03:20:36.360Z,0
2017-02-04T03:21:44.447Z,0
2017-02-04T03:22:52.536Z,0
2017-02-04T03:24:00.624Z,0
2017-02-04T03:25:08.707Z,0
2017-02-04T03:26:16.801Z,0
2017-02-04T03:27:24.889Z,0
2017-02-04T03:28:32.976Z,0
2017-02-04T03:29:41.066Z,0
2017-02-04T03:30:49.158Z,0
2017-02-04T03:31:57.246Z,0
2017-02-04T03:33:05.333Z,0
2017-02-04T03:34:13.425Z,0
2017-02-04T03:35:21.512Z,0
2017-02-04T03:36:29.594Z,0
2017-02-04T03:37:37.690Z,0
2017-02-04T03:38:45.779Z,0
2017-02-04T03:39:53.866Z,0
2017-02-04T03:41:01.949Z,0
2017-02-04T03:42:10.038Z,0
2017-02-04T03:43:18.132Z,0
2017-02-04T03:44:26.215Z,0
2017-02-04T03:45:34.310Z,0
2017-02-04T03:46:42.400Z,0
2017-02-04T03:47:50.483Z,0
2017-02-04T03:48:58.579Z,0
2017-02-04T03:50:06.663Z,0
2017-02-04T03:51:14.753Z,0
2017-02-04T03:52:22.838Z,0
2017-02-04T03:53:30.935Z,0
2017-02-04T03:54:39.016Z,0
2017-02-04T03:55:47.103Z,0
2017-02-04T03:56:55.192Z,0
2017-02-04T03:58:03.285Z,0
2017-02-04T03:59:11.376Z,0
2017-02-04T04:00:19.457Z,0
2017-02-04T04:01:27.548Z,0
2017-02-04T04:02:35.638Z,0
2017-02-04T04:03:43.725Z,0
2017-02-04T04:04:51.814Z,0
2017-02-04T04:05:59.907Z,0
2017-02-04T04:07:07.991Z,0
2017-02-04T04:08:16.079Z,0
2017-02-04T04:09:24.171Z,0
2017-02-04T04:10:32.258Z,0
2017-02-04T04:11:40.341Z,0
2017-02-04T04:12:48.432Z,0
2017-02-04T04:13:56.526Z,0
2017-02-04T04:15:04.615Z,0
2017-02-04T04:16:12.698Z,0
2017-02-04T04:17:20.792Z,0
2017-02-04T04:18:28.877Z,0
2017-02-04T04:19:36.960Z,0
2017-02-04T04:20:45.056Z,0
2017-02-04T04:21:53.141Z,0
2017-02-04T04:23:01.226Z,0
2017-02-04T04:24:09.316Z,0
2017-02-04T04:25:17.415Z,0
2017-02-04T04:26:25.505Z,0
2017-02-04T04:27:33.592Z,0
2017-02-04T04:28:41.681Z,0
2017-02-04T04:29:49.767Z,0
2017-02-04T04:30:57.854Z,0
2017-02-04T04:32:05.942Z,0
2017-02-04T04:33:14.035Z,0
2017-02-04T04:34:22.124Z,0
2017-02-04T04:35:30.207Z,0
2017-02-04T04:36:38.297Z,0
2017-02-04T04:37:46.384Z,0
2017-02-04T04:38:54.474Z,0
2017-02-04T04:40:02.552Z,0
2017-02-04T04:41:10.644Z,0
2017-02-04T04:42:18.731Z,0
2017-02-04T04:43:26.814Z,0
2017-02-04T04:44:34.906Z,0
2017-02-04T04:45:42.994Z,0
2017-02-04T04:46:51.084Z,0
2017-02-04T04:47:59.168Z,0
2017-02-04T04:49:07.259Z,0
2017-02-04T04:50:15.419Z,0
2017-02-04T04:51:23.435Z,0
2017-02-04T04:52:31.520Z,0
2017-02-04T04:53:39.609Z,0
2017-02-04T04:54:47.694Z,0
2017-02-04T04:55:55.782Z,0
2017-02-04T04:57:03.874Z,0
2017-02-04T04:58:11.964Z,0
2017-02-04T04:59:20.052Z,0
2017-02-04T05:00:28.141Z,0
2017-02-04T05:01:36.236Z,0
2017-02-04T05:02:44.325Z,0
2017-02-04T05:03:52.407Z,0
2017-02-04T05:05:00.498Z,0
2017-02-04T05:06:08.585Z,0
2017-02-04T05:07:16.720Z,0
2017-02-04T05:08:24.765Z,0
2017-02-04T05:09:32.856Z,0
2017-02-04T05:10:40.937Z,0
2017-02-04T05:11:49.028Z,0
2017-02-04T05:12:57.586Z,0
2017-02-04T05:14:05.203Z,0
2017-02-04T05:15:13.295Z,0
2017-02-04T05:16:21.387Z,0
2017-02-04T05:17:29.473Z,0
2017-02-04T05:18:37.564Z,0
2017-02-04T05:19:45.653Z,0
2017-02-04T05:20:53.741Z,0
2017-02-04T05:22:01.831Z,0
2017-02-04T05:23:09.931Z,0
2017-02-04T05:24:17.998Z,0
2017-02-04T05:25:26.087Z,0
2017-02-04T05:26:34.175Z,0
2017-02-04T05:27:42.262Z,0
2017-02-04T05:28:50.355Z,0
2017-02-04T05:29:59.126Z,0
2017-02-04T05:31:06.531Z,0
2017-02-04T05:32:14.617Z,0
2017-02-04T05:33:22.700Z,0
2017-02-04T05:34:30.786Z,0
2017-02-04T05:35:38.875Z,0
2017-02-04T05:36:46.958Z,0
2017-02-04T05:37:55.050Z,0
2017-02-04T05:39:03.136Z,0
2017-02-04T05:40:11.228Z,0
2017-02-04T05:41:19.315Z,0
2017-02-04T05:42:27.408Z,0
2017-02-04T05:43:35.498Z,0
2017-02-04T05:44:43.644Z,0
2017-02-04T05:45:51.679Z,0
2017-02-04T05:46:59.764Z,0
2017-02-04T05:48:07.892Z,0
2017-02-04T05:49:15.945Z,0
2017-02-04T05:50:24.025Z,0
2017-02-04T05:51:32.114Z,0
2017-02-04T05:52:40.199Z,0
2017-02-04T05:53:48.285Z,0
2017-02-04T05:54:56.372Z,0
2017-02-04T05:56:04.464Z,0
2017-02-04T05:57:12.546Z,0
2017-02-04T05:58:20.636Z,0
2017-02-04T05:59:28.732Z,0
2017-02-04T06:00:36.839Z,0
2017-02-04T06:01:44.910Z,0
2017-02-04T06:02:52.994Z,0
2017-02-04T06:04:01.082Z,0
2017-02-04T06:05:09.170Z,0
2017-02-04T06:06:17.253Z,0
2017-02-04T06:07:25.497Z,0
2017-02-04T06:08:33.540Z,0
2017-02-04T06:09:41.514Z,0
2017-02-04T06:10:49.607Z,0
2017-02-04T06:11:57.695Z,0
2017-02-04T06:13:06.007Z,0
2017-02-04T06:14:13.868Z,0
2017-02-04T06:15:21.959Z,0
2017-02-04T06:16:30.109Z,0
2017-02-04T06:17:38.128Z,0
2017-02-04T06:18:46.217Z,0
2017-02-04T06:19:54.304Z,0
2017-02-04T06:21:02.391Z,0
2017-02-04T06:22:10.481Z,0
2017-02-04T06:23:18.577Z,0
2017-02-04T06:24:26.663Z,0
2017-02-04T06:25:34.752Z,0
2017-02-04T06:26:42.841Z,0
2017-02-04T06:27:50.926Z,0
2017-02-04T06:28:59.011Z,0
2017-02-04T06:30:07.094Z,0
2017-02-04T06:31:15.188Z,0
2017-02-04T06:32:23.277Z,0
2017-02-04T06:33:31.359Z,0
2017-02-04T06:34:39.449Z,0
2017-02-04T06:35:47.535Z,0
2017-02-04T06:36:55.625Z,0
2017-02-04T06:38:03.707Z,0
2017-02-04T06:39:11.795Z,0
2017-02-04T06:40:19.883Z,4
2017-02-04T06:41:27.967Z,0
2017-02-04T06:42:36.059Z,0
2017-02-04T06:43:44.151Z,0
2017-02-04T06:44:52.233Z,4
2017-02-04T06:46:00.318Z,0
2017-02-04T06:47:08.412Z,0
2017-02-04T06:48:16.499Z,0
2017-02-04T06:49:24.630Z,0
2017-02-04T06:50:32.675Z,0
2017-02-04T06:51:40.762Z,0
2017-02-04T06:52:49.007Z,0
2017-02-04T06:53:56.941Z,0
2017-02-04T06:55:05.038Z,4
2017-02-04T06:56:13.120Z,4
2017-02-04T06:57:21.217Z,4
2017-02-04T06:58:29.306Z,0
2017-02-04T06:59:37.393Z,0
2017-02-04T07:00:45.481Z,0
2017-02-04T07:01:53.566Z,0
2017-02-04T07:03:01.658Z,0
2017-02-04T07:04:09.747Z,0
2017-02-04T07:05:17.823Z,4
2017-02-04T07:06:26.336Z,4
2017-02-04T07:07:34.115Z,4
2017-02-04T07:08:42.098Z,4
2017-02-04T07:09:50.183Z,4
2017-02-04T07:10:58.274Z,0
2017-02-04T07:12:06.363Z,0
2017-02-04T07:13:14.442Z,4
2017-02-04T07:14:22.535Z,4
2017-02-04T07:15:30.624Z,4
2017-02-04T07:16:38.712Z,4
2017-02-04T07:17:46.796Z,4
2017-02-04T07:18:54.889Z,4
2017-02-04T07:20:02.980Z,4
2017-02-04T07:21:11.062Z,4
2017-02-04T07:22:19.164Z,4
2017-02-04T07:23:27.253Z,4
2017-02-04T07:24:35.325Z,4
2017-02-04T07:25:43.412Z,4
2017-02-04T07:26:51.502Z,4
2017-02-04T07:27:59.594Z,4
2017-02-04T07:29:07.679Z,4
2017-02-04T07:30:15.776Z,8
2017-02-04T07:31:23.870Z,4
2017-02-04T07:32:31.951Z,4
2017-02-04T07:33:40.042Z,8
2017-02-04T07:34:48.130Z,4
2017-02-04T07:35:56.235Z,8
2017-02-04T07:37:04.303Z,8
2017-02-04T07:38:12.392Z,8
2017-02-04T07:39:20.481Z,8
2017-02-04T07:40:28.567Z,8
2017-02-04T07:41:36.656Z,8
2017-02-04T07:42:44.745Z,8
2017-02-04T07:43:52.831Z,8
2017-02-04T07:45:00.943Z,8
2017-02-04T07:46:09.017Z,4
2017-02-04T07:47:17.104Z,8
2017-02-04T07:48:25.178Z,8
2017-02-04T07:49:33.909Z,8
2017-02-04T07:50:41.352Z,8
2017-02-04T07:51:49.888Z,8
2017-02-04T07:52:57.602Z,8
2017-02-04T07:54:05.612Z,8
2017-02-04T07:55:14.307Z,8
2017-02-04T07:56:21.787Z,8
2017-02-04T07:57:30.181Z,8
2017-02-04T07:58:37.965Z,12
2017-02-04T07:59:46.055Z,8
2017-02-04T08:00:54.145Z,12
2017-02-04T08:02:02.251Z,12
2017-02-04T08:03:10.523Z,12
2017-02-04T08:04:18.505Z,12
2017-02-04T08:05:27.110Z,12
2017-02-04T08:06:35.251Z,12
2017-02-04T08:07:42.788Z,8
2017-02-04T08:08:51.132Z,8
2017-02-04T08:09:58.880Z,8
2017-02-04T08:11:06.966Z,8
2017-02-04T08:12:15.047Z,12
2017-02-04T08:13:23.145Z,12
2017-02-04T08:14:31.238Z,12
2017-02-04T08:15:39.356Z,12
2017-02-04T08:16:47.424Z,12
2017-02-04T08:17:55.508Z,12
2017-02-04T08:19:03.604Z,16
2017-02-04T08:20:11.684Z,12
2017-02-04T08:21:20.146Z,16
2017-02-04T08:22:28.014Z,16
2017-02-04T08:23:35.991Z,12
2017-02-04T08:24:44.040Z,12
2017-02-04T08:25:52.129Z,12
2017-02-04T08:27:00.215Z,12
2017-02-04T08:28:08.298Z,12
2017-02-04T08:29:16.388Z,12
2017-02-04T08:30:24.485Z,12
2017-02-04T08:31:32.561Z,16
2017-02-04T08:32:40.652Z,12
2017-02-04T08:33:48.739Z,16
2017-02-04T08:34:56.820Z,16
2017-02-04T08:36:04.907Z,16
2017-02-04T08:37:12.996Z,16
2017-02-04T08:38:21.082Z,16
2017-02-04T08:39:29.272Z,16
2017-02-04T08:40:37.351Z,12
2017-02-04T08:41:45.410Z,16
2017-02-04T08:42:53.510Z,16
2017-02-04T08:44:01.621Z,20
2017-02-04T08:45:09.712Z,16
2017-02-04T08:46:17.926Z,20
2017-02-04T08:47:25.977Z,20
2017-02-04T08:48:34.152Z,16
2017-02-04T08:49:42.249Z,16
2017-02-04T08:50:50.040Z,16
2017-02-04T08:51:58.122Z,16
2017-02-04T08:53:06.217Z,16
2017-02-04T08:54:14.435Z,20
2017-02-04T08:55:22.389Z,16
2017-02-04T08:56:30.485Z,16
2017-02-04T08:57:38.572Z,16
2017-02-04T08:58:46.663Z,16
2017-02-04T08:59:54.748Z,16
2017-02-04T09:01:02.839Z,16
2017-02-04T09:02:10.925Z,16
2017-02-04T09:03:19.011Z,16
2017-02-04T09:04:27.099Z,16
2017-02-04T09:05:35.185Z,20
2017-02-04T09:06:43.268Z,16
2017-02-04T09:07:51.362Z,20
2017-02-04T09:09:00.100Z,20
2017-02-04T09:10:07.538Z,20
2017-02-04T09:11:15.869Z,20
2017-02-04T09:12:23.713Z,20
2017-02-04T09:13:31.807Z,20
2017-02-04T09:14:39.893Z,20
2017-02-04T09:15:47.977Z,16
2017-02-04T09:16:56.274Z,16
2017-02-04T09:18:04.170Z,16
2017-02-04T09:19:12.239Z,16
2017-02-04T09:20:20.333Z,16
2017-02-04T09:21:28.427Z,16
2017-02-04T09:22:36.513Z,20
2017-02-04T09:23:44.872Z,20
2017-02-04T09:24:52.893Z,16
2017-02-04T09:26:00.780Z,20
2017-02-04T09:27:08.863Z,20
2017-02-04T09:28:16.951Z,24
2017-02-04T09:29:25.041Z,20
2017-02-04T09:30:33.133Z,24
2017-02-04T09:31:41.228Z,24
2017-02-04T09:32:49.724Z,20
2017-02-04T09:33:57.403Z,24
2017-02-04T09:35:05.491Z,24
2017-02-04T09:36:13.579Z,20
2017-02-04T09:37:21.667Z,20
2017-02-04T09:38:29.754Z,20
2017-02-04T09:39:37.855Z,20
2017-02-04T09:40:45.940Z,20
2017-02-04T09:41:54.025Z,20
2017-02-04T09:43:02.109Z,20
2017-02-04T09:44:10.201Z,20
2017-02-04T09:45:18.290Z,20
2017-02-04T09:46:26.372Z,20
2017-02-04T09:47:34.464Z,20
2017-02-04T09:48:42.548Z,16
2017-02-04T09:49:50.637Z,16
2017-02-04T09:50:58.727Z,16
2017-02-04T09:52:07.397Z,20
2017-02-04T09:53:14.903Z,16
2017-02-04T09:54:22.994Z,16
2017-02-04T09:55:31.080Z,16
2017-02-04T09:56:39.165Z,12
2017-02-04T09:57:47.248Z,16
2017-02-04T09:58:55.341Z,16
2017-02-04T10:00:03.441Z,16
2017-02-04T10:01:11.532Z,16
2017-02-04T10:02:19.614Z,20
2017-02-04T10:03:27.701Z,16
2017-02-04T10:04:35.878Z,16
2017-02-04T10:05:43.873Z,20
2017-02-04T10:06:51.961Z,16
2017-02-04T10:08:00.043Z,20
2017-02-04T10:09:08.133Z,20
2017-02-04T10:10:16.220Z,20
2017-02-04T10:11:24.315Z,20
2017-02-04T10:12:32.410Z,24
2017-02-04T10:13:40.495Z,24
2017-02-04T10:14:48.582Z,24
2017-02-04T10:15:56.692Z,24
2017-02-04T10:17:04.759Z,24
2017-02-04T10:18:12.843Z,24
2017-02-04T10:19:20.932Z,24
2017-02-04T10:20:29.025Z,24
2017-02-04T10:21:37.149Z,28
2017-02-04T10:22:45.192Z,28
2017-02-04T10:23:53.290Z,24
2017-02-04T10:25:01.375Z,24
2017-02-04T10:26:09.459Z,24
2017-02-04T10:27:17.554Z,24
2017-02-04T10:28:25.825Z,24
2017-02-04T10:29:33.723Z,24
2017-02-04T10:30:41.806Z,24
2017-02-04T10:31:49.900Z,20
2017-02-04T10:32:57.987Z,24
2017-02-04T10:34:06.073Z,20
2017-02-04T10:35:14.160Z,20
2017-02-04T10:36:22.249Z,20
2017-02-04T10:37:30.335Z,24
2017-02-04T10:38:38.492Z,20
2017-02-04T10:39:46.507Z,20
2017-02-04T10:40:54.602Z,20
2017-02-04T10:42:02.693Z,20
2017-02-04T10:43:10.779Z,16
2017-02-04T10:44:18.865Z,16
2017-02-04T10:45:26.950Z,20
2017-02-04T10:46:35.035Z,20
2017-02-04T10:47:43.127Z,16
2017-02-04T10:48:51.217Z,20
2017-02-04T10:49:59.296Z,20
2017-02-04T10:51:07.390Z,20
2017-02-04T10:52:15.481Z,24
2017-02-04T10:53:23.566Z,24
2017-02-04T10:54:31.655Z,20
2017-02-04T10:55:39.743Z,24
2017-02-04T10:56:47.819Z,24
2017-02-04T10:57:55.906Z,24
2017-02-04T10:59:04.002Z,24
2017-02-04T11:00:12.096Z,28
2017-02-04T11:01:20.178Z,28
2017-02-04T11:02:28.268Z,28
2017-02-04T11:03:36.353Z,28
2017-02-04T11:04:44.447Z,24
2017-02-04T11:05:52.529Z,28
2017-02-04T11:07:00.620Z,24
2017-02-04T11:08:08.710Z,24
2017-02-04T11:09:16.791Z,20
2017-02-04T11:10:24.886Z,20
2017-02-04T11:11:32.968Z,20
2017-02-04T11:12:41.063Z,16
2017-02-04T11:13:49.762Z,16
2017-02-04T11:14:57.239Z,16
2017-02-04T11:16:05.326Z,16
2017-02-04T11:17:13.410Z,16
2017-02-04T11:18:21.502Z,16
2017-02-04T11:19:29.594Z,16
2017-02-04T11:20:37.684Z,20
2017-02-04T11:21:45.785Z,20
2017-02-04T11:22:53.871Z,24
2017-02-04T11:24:01.960Z,24
2017-02-04T11:25:10.043Z,24
2017-02-04T11:26:18.134Z,20
2017-02-04T11:27:26.223Z,24
2017-02-04T11:28:34.307Z,20
2017-02-04T11:29:42.518Z,20
2017-02-04T11:30:50.487Z,20
2017-02-04T11:31:58.578Z,16
2017-02-04T11:33:07.014Z,16
2017-02-04T11:34:15.167Z,16
2017-02-04T11:35:22.954Z,12
2017-02-04T11:36:31.121Z,16
2017-02-04T11:37:39.024Z,16
2017-02-04T11:38:47.114Z,16
2017-02-04T11:39:55.206Z,16
2017-02-04T11:41:03.291Z,12
2017-02-04T11:42:11.383Z,16
2017-02-04T11:43:19.482Z,16
2017-02-04T11:44:27.563Z,16
2017-02-04T11:45:35.654Z,16
2017-02-04T11:46:43.743Z,16
2017-02-04T11:47:51.827Z,16
2017-02-04T11:48:59.908Z,12
2017-02-04T11:50:07.995Z,16
2017-02-04T11:51:16.093Z,12
2017-02-04T11:52:24.176Z,16
2017-02-04T11:53:32.259Z,16
2017-02-04T11:54:40.354Z,20
2017-02-04T11:55:48.442Z,24
2017-02-04T11:56:56.523Z,28
2017-02-04T11:58:04.618Z,32
2017-02-04T11:59:12.703Z,32
2017-02-04T12:00:20.788Z,36
2017-02-04T12:01:29.205Z,36
2017-02-04T12:02:37.159Z,32
2017-02-04T12:03:45.457Z,36
2017-02-04T12:04:53.435Z,36
2017-02-04T12:06:01.229Z,36
2017-02-04T12:07:09.322Z,36
2017-02-04T12:08:17.403Z,40
2017-02-04T12:09:25.635Z,40
2017-02-04T12:10:34.260Z,44
2017-02-04T12:11:41.661Z,48
2017-02-04T12:12:49.750Z,44
2017-02-04T12:13:58.281Z,44
2017-02-04T12:15:06.327Z,48
2017-02-04T12:16:14.018Z,52
2017-02-04T12:17:22.693Z,56
2017-02-04T12:18:30.235Z,68
2017-02-04T12:19:38.278Z,64
2017-02-04T12:20:46.364Z,68
2017-02-04T12:21:54.908Z,76
2017-02-04T12:23:02.542Z,64
2017-02-04T12:24:11.075Z,60
2017-02-04T12:25:18.713Z,52
2017-02-04T12:26:26.804Z,48
2017-02-04T12:27:34.953Z,44
2017-02-04T12:28:43.527Z,40
2017-02-04T12:29:51.685Z,40
2017-02-04T12:30:59.153Z,40
2017-02-04T12:32:07.232Z,40
2017-02-04T12:33:15.322Z,44
2017-02-04T12:34:23.407Z,44
2017-02-04T12:35:31.490Z,52
2017-02-04T12:36:39.576Z,40
2017-02-04T12:37:47.667Z,44
2017-02-04T12:38:55.752Z,32
2017-02-04T12:40:03.843Z,44
2017-02-04T12:41:12.497Z,44
2017-02-04T12:42:20.019Z,36
2017-02-04T12:43:28.099Z,40
2017-02-04T12:44:36.187Z,28
2017-02-04T12:45:44.275Z,40
2017-02-04T12:46:52.361Z,20
2017-02-04T12:48:00.446Z,20
2017-02-04T12:49:08.537Z,28
2017-02-04T12:50:16.675Z,32
2017-02-04T12:51:24.717Z,36
2017-02-04T12:52:32.801Z,40
2017-02-04T12:53:40.888Z,32
2017-02-04T12:54:48.977Z,40
2017-02-04T12:55:57.059Z,44
2017-02-04T12:57:05.150Z,36
2017-02-04T12:58:13.238Z,28
2017-02-04T12:59:21.318Z,24
2017-02-04T13:00:29.410Z,24
2017-02-04T13:01:37.508Z,32
2017-02-04T13:02:45.596Z,56
2017-02-04T13:03:53.679Z,64
2017-02-04T13:05:01.766Z,60
2017-02-04T13:06:09.865Z,56
2017-02-04T13:07:18.210Z,64
2017-02-04T13:08:26.041Z,60
2017-02-04T13:09:34.128Z,48
2017-02-04T13:10:42.589Z,64
2017-02-04T13:11:50.301Z,64
2017-02-04T13:12:58.392Z,60
2017-02-04T13:14:06.489Z,56
2017-02-04T13:15:14.575Z,48
2017-02-04T13:16:22.660Z,52
2017-02-04T13:17:30.750Z,48
2017-02-04T13:18:38.842Z,48
2017-02-04T13:19:46.927Z,48
2017-02-04T13:20:55.021Z,48
2017-02-04T13:22:03.113Z,48
2017-02-04T13:23:11.194Z,48
2017-02-04T13:24:19.288Z,44
2017-02-04T13:25:27.373Z,44
2017-02-04T13:26:35.464Z,36
2017-02-04T13:27:43.551Z,28
2017-02-04T13:28:51.641Z,24
2017-02-04T13:29:59.727Z,24
2017-02-04T13:31:07.810Z,28
2017-02-04T13:32:15.899Z,32
2017-02-04T13:33:23.989Z,28
2017-02-04T13:34:32.072Z,24
2017-02-04T13:35:40.160Z,28
2017-02-04T13:36:48.252Z,24
2017-02-04T13:37:56.339Z,28
2017-02-04T13:39:04.430Z,28
2017-02-04T13:40:12.514Z,32
2017-02-04T13:41:20.600Z,28
2017-02-04T13:42:28.689Z,28
2017-02-04T13:43:36.778Z,28
2017-02-04T13:44:44.871Z,28
2017-02-04T13:45:52.953Z,28
2017-02-04T13:47:01.039Z,24
2017-02-04T13:48:09.130Z,28
2017-02-04T13:49:17.223Z,28
2017-02-04T13:50:25.316Z,24
2017-02-04T13:51:33.399Z,24
2017-02-04T13:52:41.489Z,24
2017-02-04T13:53:49.576Z,24
2017-02-04T13:54:57.661Z,24
2017-02-04T13:56:05.751Z,24
2017-02-04T13:57:13.837Z,28
2017-02-04T13:58:21.919Z,28
2017-02-04T13:59:30.006Z,20
2017-02-04T14:00:38.096Z,24
2017-02-04T14:01:46.181Z,20
2017-02-04T14:02:54.266Z,20
2017-02-04T14:04:02.356Z,16
2017-02-04T14:05:10.444Z,16
2017-02-04T14:06:18.529Z,16
2017-02-04T14:07:26.613Z,16
2017-02-04T14:08:34.709Z,16
2017-02-04T14:09:42.787Z,16
2017-02-04T14:10:50.887Z,12
2017-02-04T14:11:58.970Z,12
2017-02-04T14:13:07.063Z,16
2017-02-04T14:14:15.149Z,12
2017-02-04T14:15:23.244Z,8
2017-02-04T14:16:31.325Z,8
2017-02-04T14:17:39.415Z,8
2017-02-04T14:18:47.497Z,8
2017-02-04T14:19:55.588Z,8
2017-02-04T14:21:03.690Z,8
2017-02-04T14:22:11.768Z,8
2017-02-04T14:23:19.862Z,8
2017-02-04T14:24:27.951Z,8
2017-02-04T14:25:36.042Z,8
2017-02-04T14:26:44.125Z,8
2017-02-04T14:27:52.218Z,8
2017-02-04T14:29:00.312Z,12
2017-02-04T14:30:08.398Z,8
2017-02-04T14:31:16.489Z,12
2017-02-04T14:32:24.577Z,12
2017-02-04T14:33:32.670Z,16
2017-02-04T14:34:40.747Z,12
2017-02-04T14:35:48.841Z,12
2017-02-04T14:36:56.935Z,12
2017-02-04T14:38:05.023Z,12
2017-02-04T14:39:13.107Z,12
2017-02-04T14:40:21.197Z,12
2017-02-04T14:41:29.282Z,12
2017-02-04T14:42:37.361Z,12
2017-02-04T14:43:45.460Z,12
2017-02-04T14:44:53.538Z,12
2017-02-04T14:46:01.622Z,12
2017-02-04T14:47:09.718Z,8
2017-02-04T14:48:17.825Z,8
2017-02-04T14:49:25.891Z,8
2017-02-04T14:50:33.970Z,8
2017-02-04T14:51:42.063Z,8
2017-02-04T14:52:50.150Z,4
2017-02-04T14:53:58.233Z,8
2017-02-04T14:55:06.330Z,8
2017-02-04T14:56:14.436Z,8
2017-02-04T14:57:22.492Z,8
2017-02-04T14:58:30.579Z,4
2017-02-04T14:59:38.668Z,4
2017-02-04T15:00:46.760Z,8
2017-02-04T15:01:54.849Z,8
2017-02-04T15:03:02.936Z,8
2017-02-04T15:04:11.032Z,8
2017-02-04T15:05:19.118Z,8
2017-02-04T15:06:27.207Z,8
2017-02-04T15:07:35.300Z,8
2017-02-04T15:08:43.392Z,8
2017-02-04T15:09:51.472Z,8
2017-02-04T15:10:59.565Z,8
2017-02-04T15:12:07.658Z,12
2017-02-04T15:13:15.734Z,8
2017-02-04T15:14:23.830Z,8
2017-02-04T15:15:31.924Z,8
2017-02-04T15:16:40.020Z,8
2017-02-04T15:17:48.098Z,8
2017-02-04T15:18:56.205Z,8
2017-02-04T15:18:56.216Z,8
2017-02-04T15:20:04.280Z,8
2017-02-04T15:21:12.365Z,8
2017-02-04T15:22:20.454Z,12
2017-02-04T15:23:28.546Z,8
2017-02-04T15:24:36.633Z,8
2017-02-04T15:25:44.721Z,12
2017-02-04T15:26:52.809Z,12
2017-02-04T15:28:00.897Z,8
2017-02-04T15:29:09.001Z,8
2017-02-04T15:30:17.077Z,8
2017-02-04T15:31:25.163Z,8
2017-02-04T15:32:33.251Z,8
2017-02-04T15:33:41.339Z,8
2017-02-04T15:34:49.427Z,8
2017-02-04T15:35:57.556Z,12
2017-02-04T15:37:05.601Z,8
2017-02-04T15:38:13.700Z,12
2017-02-04T15:39:21.785Z,12
2017-02-04T15:40:29.873Z,8
2017-02-04T15:41:37.960Z,8
2017-02-04T15:42:46.053Z,8
2017-02-04T15:43:54.138Z,8
2017-02-04T15:45:02.221Z,4
2017-02-04T15:46:10.310Z,4
2017-02-04T15:47:18.409Z,4
2017-02-04T15:48:26.487Z,4
2017-02-04T15:49:34.575Z,8
2017-02-04T15:50:42.675Z,4
2017-02-04T15:51:50.760Z,4
2017-02-04T15:52:58.847Z,4
2017-02-04T15:54:06.933Z,4
2017-02-04T15:55:15.020Z,4
2017-02-04T15:56:23.103Z,4
2017-02-04T15:57:31.193Z,0
2017-02-04T15:58:39.284Z,0
2017-02-04T15:59:47.371Z,0
2017-02-04T16:00:55.461Z,4
2017-02-04T16:02:03.555Z,0
2017-02-04T16:03:11.644Z,0
2017-02-04T16:04:19.765Z,4
2017-02-04T16:05:27.822Z,0
2017-02-04T16:06:35.909Z,4
2017-02-04T16:07:43.998Z,4
2017-02-04T16:08:52.081Z,0
2017-02-04T16:10:00.167Z,0
2017-02-04T16:11:08.255Z,0
2017-02-04T16:12:16.339Z,0
2017-02-04T16:13:24.425Z,4
2017-02-04T16:14:32.518Z,0
2017-02-04T16:15:40.612Z,0
2017-02-04T16:16:48.693Z,0
2017-02-04T16:17:56.780Z,0
2017-02-04T16:19:04.867Z,0
2017-02-04T16:20:12.950Z,0
2017-02-04T16:21:21.035Z,0
2017-02-04T16:22:29.129Z,0
2017-02-04T16:23:37.214Z,0
2017-02-04T16:24:45.302Z,0
2017-02-04T16:25:53.393Z,0
2017-02-04T16:27:01.483Z,0
2017-02-04T16:28:09.568Z,0
2017-02-04T16:29:17.653Z,0
2017-02-04T16:30:25.746Z,0
2017-02-04T16:31:33.835Z,0